Time;durP1;ratioP1;P1;durP2;ratioP2;P2;SDS_P1;SDS_P2;PMS_P1;PMS_P2;Temp;Humidity;BMP_temperature;BMP_pressure;BME280_temperature;BME280_humidity;BME280_pressure;Samples;Min_cycle;Max_cycle;Signal;HPM_P1;HPM_P2
2024/03/19 00:02:34;;;;;;;3.20;1.45;;;15.30;65.20;;;;;;4943613;28;20636;-77
2024/03/19 00:05:18;;;;;;;3.47;1.33;;;15.30;65.20;;;;;;4939504;29;20082;-76
2024/03/19 00:08:06;;;;;;;4.00;1.40;;;15.30;65.20;;;;;;4947651;28;20046;-80
2024/03/19 00:10:52;;;;;;;3.03;1.23;;;15.30;65.20;;;;;;4938201;29;20049;-81
2024/03/19 00:13:37;;;;;;;2.97;1.30;;;15.30;65.30;;;;;;4938296;29;20082;-81
2024/03/19 00:16:22;;;;;;;4.93;1.35;;;15.20;65.10;;;;;;4941349;28;20075;-77
2024/03/19 00:19:10;;;;;;;3.13;1.50;;;15.20;65.20;;;;;;4929685;28;20398;-83
2024/03/19 00:21:55;;;;;;;5.43;1.92;;;15.20;65.20;;;;;;4944807;28;20046;-78
2024/03/19 00:24:43;;;;;;;5.13;1.40;;;15.20;65.20;;;;;;4939497;28;20536;-78
2024/03/19 00:27:30;;;;;;;3.60;1.40;;;15.20;65.30;;;;;;4933836;28;20066;-76
2024/03/19 00:30:16;;;;;;;5.30;1.33;;;15.20;65.80;;;;;;4933536;28;20057;-77
2024/03/19 00:33:00;;;;;;;5.57;1.42;;;15.20;65.30;;;;;;4949946;28;20066;-78
2024/03/19 00:35:45;;;;;;;4.38;1.35;;;15.10;65.10;;;;;;4924647;29;20328;-78
2024/03/19 00:38:34;;;;;;;6.10;1.45;;;15.10;65.20;;;;;;4928734;28;20090;-81
2024/03/19 00:41:18;;;;;;;4.63;2.08;;;15.10;65.20;;;;;;4940903;28;20055;-77
2024/03/19 00:44:04;;;;;;;6.07;1.60;;;15.10;65.20;;;;;;4935081;28;20444;-78
2024/03/19 00:46:49;;;;;;;4.80;2.13;;;15.10;65.20;;;;;;4947573;28;20090;-77
2024/03/19 00:49:34;;;;;;;6.75;1.67;;;15.10;65.30;;;;;;4931256;29;20461;-79
2024/03/19 00:52:18;;;;;;;3.45;1.13;;;15.00;65.10;;;;;;4933060;29;20285;-78
2024/03/19 00:55:04;;;;;;;5.43;1.70;;;15.10;65.80;;;;;;4932541;28;20427;-83
2024/03/19 00:57:48;;;;;;;4.68;1.48;;;15.10;65.30;;;;;;4936706;29;20250;-77
2024/03/19 01:00:33;;;;;;;6.05;1.70;;;15.00;65.20;;;;;;4938266;28;20120;-77
2024/03/19 01:03:21;;;;;;;6.38;1.30;;;15.00;65.20;;;;;;4931757;28;20121;-79
2024/03/19 01:06:05;;;;;;;6.55;2.20;;;15.00;65.20;;;;;;4932556;29;20472;-77
2024/03/19 01:08:50;;;;;;;6.78;2.08;;;15.00;65.30;;;;;;4934292;28;20082;-77
2024/03/19 01:11:34;;;;;;;4.25;1.25;;;15.00;65.80;;;;;;4936256;28;20106;-80
2024/03/19 01:14:20;;;;;;;5.00;1.38;;;15.00;65.30;;;;;;4931022;28;20078;-78
2024/03/19 01:17:05;;;;;;;5.35;1.40;;;15.00;65.30;;;;;;4935627;28;20046;-79
2024/03/19 01:19:50;;;;;;;7.22;1.30;;;15.00;65.30;;;;;;4943148;28;20574;-78
2024/03/19 01:22:39;;;;;;;4.85;1.30;;;15.00;65.30;;;;;;4928920;28;20053;-83
2024/03/19 01:25:26;;;;;;;5.78;1.30;;;14.90;65.20;;;;;;4924906;28;20614;-79
2024/03/19 01:28:13;;;;;;;5.53;1.40;;;14.90;65.20;;;;;;4927076;29;20086;-76
2024/03/19 01:30:57;;;;;;;5.22;1.50;;;14.90;65.20;;;;;;4936784;29;20369;-77
2024/03/19 01:33:45;;;;;;;6.18;1.70;;;14.90;65.30;;;;;;4935332;28;20057;-79
2024/03/19 01:36:31;;;;;;;4.10;1.33;;;14.90;65.50;;;;;;4933952;28;20228;-78
2024/03/19 01:39:16;;;;;;;4.68;1.80;;;14.90;65.30;;;;;;4936588;28;20276;-78
2024/03/19 01:42:04;;;;;;;4.28;1.40;;;14.90;65.30;;;;;;4950271;28;20047;-80
2024/03/19 01:44:51;;;;;;;3.13;1.23;;;14.90;65.40;;;;;;4930011;29;20070;-79
2024/03/19 01:47:36;;;;;;;2.88;1.25;;;14.80;65.20;;;;;;4937156;28;20039;-79
2024/03/19 01:50:24;;;;;;;6.13;1.35;;;14.80;65.20;;;;;;4936092;28;20093;-78
2024/03/19 01:53:13;;;;;;;5.40;1.40;;;14.90;65.40;;;;;;4926520;28;20665;-78
2024/03/19 01:55:57;;;;;;;7.10;1.40;;;14.80;65.30;;;;;;4929789;29;20090;-84
2024/03/19 01:58:46;;;;;;;7.65;2.17;;;14.80;65.30;;;;;;4927874;29;20674;-78
2024/03/19 02:01:34;;;;;;;3.92;1.00;;;14.80;65.30;;;;;;4930179;28;20050;-77
2024/03/19 02:04:18;;;;;;;7.28;1.63;;;14.80;65.30;;;;;;4936120;28;20042;-77
2024/03/19 02:07:03;;;;;;;4.22;1.10;;;14.80;65.30;;;;;;4934704;28;20461;-78
2024/03/19 02:09:49;;;;;;;5.63;1.65;;;14.80;65.30;;;;;;4936509;28;20054;-78
2024/03/19 02:12:34;;;;;;;3.47;1.45;;;14.80;65.30;;;;;;4943393;28;20046;-77
2024/03/19 02:15:21;;;;;;;3.95;1.48;;;14.80;65.40;;;;;;4940332;28;20050;-77
2024/03/19 02:18:06;;;;;;;6.18;1.45;;;14.70;65.20;;;;;;4931833;29;20060;-78
2024/03/19 02:20:50;;;;;;;4.65;2.28;;;14.70;65.20;;;;;;4932700;28;20799;-77
2024/03/19 02:23:35;;;;;;;4.63;1.52;;;14.80;65.40;;;;;;4928996;29;20106;-76
2024/03/19 02:26:21;;;;;;;5.15;2.08;;;14.70;65.20;;;;;;4942599;29;20043;-78
2024/03/19 02:29:06;;;;;;;5.35;1.63;;;14.70;65.20;;;;;;4955784;28;20043;-80
2024/03/19 02:31:51;;;;;;;6.00;1.27;;;14.70;65.20;;;;;;4953100;29;20062;-78
2024/03/19 02:34:36;;;;;;;6.30;1.48;;;14.70;65.20;;;;;;4957627;28;20043;-81
2024/03/19 02:37:21;;;;;;;3.80;1.23;;;14.70;65.20;;;;;;4959658;28;20300;-75
2024/03/19 02:40:06;;;;;;;4.78;1.50;;;14.70;65.20;;;;;;4958863;28;20066;-77
2024/03/19 02:42:51;;;;;;;4.07;1.20;;;14.70;65.30;;;;;;4963911;28;20082;-78
2024/03/19 02:45:37;;;;;;;5.35;1.25;;;14.60;65.20;;;;;;4965788;29;20058;-80
2024/03/19 02:48:22;;;;;;;6.75;1.48;;;14.70;65.40;;;;;;4959011;28;20042;-80
2024/03/19 02:51:06;;;;;;;3.78;1.00;;;14.70;65.40;;;;;;4950393;28;20103;-76
2024/03/19 02:53:51;;;;;;;5.78;1.58;;;14.60;65.30;;;;;;4931492;29;20042;-79
2024/03/19 02:56:39;;;;;;;6.75;1.85;;;14.60;65.30;;;;;;4931954;29;20047;-80
2024/03/19 02:59:24;;;;;;;6.55;1.52;;;14.60;65.30;;;;;;4935451;28;20144;-84
2024/03/19 03:02:08;;;;;;;5.93;2.63;;;14.60;65.40;;;;;;4937154;28;20046;-77
2024/03/19 03:04:56;;;;;;;3.20;1.30;;;14.60;65.40;;;;;;4930756;29;20039;-80
2024/03/19 03:07:41;;;;;;;7.10;1.73;;;14.60;65.40;;;;;;4935586;28;20386;-79
2024/03/19 03:10:25;;;;;;;4.15;1.30;;;14.60;65.40;;;;;;4935238;28;20414;-82
2024/03/19 03:13:10;;;;;;;4.28;1.40;;;14.60;65.50;;;;;;4940328;28;20147;-78
2024/03/19 03:15:56;;;;;;;4.25;1.65;;;14.60;65.50;;;;;;4941935;29;20091;-79
2024/03/19 03:18:41;;;;;;;5.22;1.10;;;14.60;65.50;;;;;;4938232;29;20603;-79
2024/03/19 03:21:26;;;;;;;7.38;1.45;;;14.60;65.50;;;;;;4933085;28;20770;-78
2024/03/19 03:24:11;;;;;;;5.95;1.33;;;14.60;65.50;;;;;;4937581;28;20340;-77
2024/03/19 03:26:55;;;;;;;5.07;1.50;;;14.60;65.50;;;;;;4946819;28;20600;-78
2024/03/19 03:29:40;;;;;;;4.03;1.55;;;14.60;65.50;;;;;;4937265;28;20108;-78
2024/03/19 03:32:26;;;;;;;4.47;1.05;;;14.50;65.40;;;;;;4947128;28;20333;-77
2024/03/19 03:35:13;;;;;;;6.20;1.92;;;14.50;65.40;;;;;;4947917;29;20091;-77
2024/03/19 03:37:57;;;;;;;4.07;1.05;;;14.60;65.50;;;;;;4952913;28;20054;-84
2024/03/19 03:40:43;;;;;;;5.32;1.33;;;14.50;65.40;;;;;;4939958;29;20050;-84
2024/03/19 03:43:28;;;;;;;4.57;1.52;;;14.50;65.40;;;;;;4937215;28;20038;-77
2024/03/19 03:46:13;;;;;;;5.55;1.00;;;14.50;65.50;;;;;;4941923;28;20601;-76
2024/03/19 03:48:57;;;;;;;5.57;1.45;;;14.50;65.50;;;;;;4935899;29;20058;-77
2024/03/19 03:51:44;;;;;;;4.28;1.48;;;14.50;65.50;;;;;;4935397;28;20231;-78
2024/03/19 03:54:29;;;;;;;3.60;0.90;;;14.50;65.60;;;;;;4939467;29;20074;-76
2024/03/19 03:57:13;;;;;;;5.68;1.60;;;14.50;65.60;;;;;;4928163;28;20082;-76
2024/03/19 03:59:58;;;;;;;3.58;1.55;;;14.50;65.70;;;;;;4926259;29;20597;-78
2024/03/19 04:02:43;;;;;;;5.60;1.60;;;14.50;65.70;;;;;;4937701;29;20093;-77
2024/03/19 04:05:29;;;;;;;4.20;1.27;;;14.40;65.70;;;;;;4940166;28;20517;-77
2024/03/19 04:08:13;;;;;;;3.00;1.00;;;14.40;65.60;;;;;;4937255;29;20406;-77
2024/03/19 04:10:58;;;;;;;5.05;1.70;;;14.40;65.80;;;;;;4943380;28;20532;-80
2024/03/19 04:13:43;;;;;;;3.03;0.93;;;14.40;65.70;;;;;;4937949;28;20587;-81
2024/03/19 04:16:27;;;;;;;4.70;1.27;;;14.40;65.70;;;;;;4942778;28;20499;-75
2024/03/19 04:19:12;;;;;;;4.32;1.10;;;14.40;65.70;;;;;;4946962;29;20093;-77
2024/03/19 04:21:57;;;;;;;3.65;1.10;;;14.40;65.80;;;;;;4941559;28;20090;-81
2024/03/19 04:24:42;;;;;;;4.88;1.23;;;14.40;65.80;;;;;;4941783;28;20331;-78
2024/03/19 04:27:27;;;;;;;3.08;1.25;;;14.40;65.90;;;;;;4939512;28;20054;-76
2024/03/19 04:30:12;;;;;;;3.38;1.15;;;14.30;65.70;;;;;;4942063;28;20042;-75
2024/03/19 04:32:57;;;;;;;3.55;1.27;;;14.30;65.70;;;;;;4946410;29;20066;-78
2024/03/19 04:35:41;;;;;;;4.70;1.50;;;14.30;66.10;;;;;;4940200;29;20058;-80
2024/03/19 04:38:26;;;;;;;4.90;2.13;;;14.40;66.00;;;;;;4941739;29;20046;-76
2024/03/19 04:41:13;;;;;;;4.05;1.38;;;14.30;65.90;;;;;;4963697;28;20114;-76
2024/03/19 04:43:57;;;;;;;4.38;1.10;;;14.30;65.90;;;;;;4957254;28;20516;-78
2024/03/19 04:46:42;;;;;;;4.90;1.38;;;14.30;65.90;;;;;;4955886;29;20093;-83
2024/03/19 04:49:27;;;;;;;5.97;1.92;;;14.30;66.00;;;;;;4947270;29;20472;-77
2024/03/19 04:52:12;;;;;;;5.10;2.17;;;14.20;65.80;;;;;;4955188;29;20034;-80
2024/03/19 04:54:57;;;;;;;3.40;0.90;;;14.30;66.00;;;;;;4952579;29;20038;-77
2024/03/19 04:57:44;;;;;;;3.40;1.50;;;14.30;66.10;;;;;;4952146;29;20060;-76
2024/03/19 05:00:29;;;;;;;4.22;1.10;;;14.20;66.00;;;;;;4948402;29;20094;-75
2024/03/19 05:03:14;;;;;;;4.25;1.45;;;14.20;66.00;;;;;;4951674;28;20098;-77
2024/03/19 05:05:58;;;;;;;3.67;1.48;;;14.20;66.00;;;;;;4952768;29;20106;-78
2024/03/19 05:08:43;;;;;;;3.50;1.10;;;14.20;66.10;;;;;;4969786;28;20082;-78
2024/03/19 05:11:28;;;;;;;2.95;0.93;;;14.20;66.10;;;;;;4956321;29;20046;-78
2024/03/19 05:14:13;;;;;;;3.90;1.25;;;14.20;66.20;;;;;;4939639;29;20075;-78
2024/03/19 05:16:58;;;;;;;4.78;1.63;;;14.20;66.20;;;;;;4950428;29;20045;-78
2024/03/19 05:19:43;;;;;;;3.65;1.38;;;14.20;66.20;;;;;;4947616;28;20042;-79
2024/03/19 05:22:28;;;;;;;4.05;1.10;;;14.20;66.30;;;;;;4946641;28;20097;-84
2024/03/19 05:25:21;;;;;;;3.47;1.02;;;14.20;66.30;;;;;;4956646;29;20106;-82
2024/03/19 05:28:06;;;;;;;;;;;14.20;66.30;;;;;;4949498;28;20088;-77
2024/03/19 05:30:54;;;;;;;4.90;1.10;;;14.20;66.30;;;;;;4951073;29;19918;-75
2024/03/19 05:33:38;;;;;;;4.93;1.20;;;14.20;66.20;;;;;;4952378;28;20079;-81
2024/03/19 05:36:24;;;;;;;4.72;1.33;;;14.10;66.10;;;;;;4949030;29;20066;-77
2024/03/19 05:39:09;;;;;;;3.47;1.35;;;14.20;66.30;;;;;;4948963;28;20149;-77
2024/03/19 05:41:54;;;;;;;3.95;1.50;;;14.10;66.20;;;;;;4959349;28;20102;-81
2024/03/19 05:44:39;;;;;;;3.28;1.00;;;14.20;66.40;;;;;;4939852;28;20050;-80
2024/03/19 05:47:23;;;;;;;4.55;1.25;;;14.10;66.30;;;;;;4935459;28;20053;-77
2024/03/19 05:50:09;;;;;;;3.30;1.58;;;14.10;66.30;;;;;;4939107;28;20057;-77
2024/03/19 05:52:54;;;;;;;4.20;1.30;;;14.10;66.40;;;;;;4941762;29;20069;-82
2024/03/19 05:55:39;;;;;;;4.05;1.30;;;14.10;66.40;;;;;;4951799;28;20123;-82
2024/03/19 05:58:24;;;;;;;3.55;1.40;;;14.10;66.40;;;;;;4965548;28;20288;-78
2024/03/19 06:01:09;;;;;;;3.58;1.02;;;14.10;66.50;;;;;;4950765;28;20287;-78
2024/03/19 06:03:55;;;;;;;2.83;1.05;;;14.10;66.50;;;;;;4934281;29;20608;-83
2024/03/19 06:06:39;;;;;;;3.22;1.10;;;14.10;66.60;;;;;;4936643;28;20057;-81
2024/03/19 06:09:24;;;;;;;5.20;1.50;;;14.10;66.60;;;;;;4952489;28;20685;-78
2024/03/19 06:12:10;;;;;;;3.72;1.95;;;14.10;66.60;;;;;;4940235;29;20551;-80
2024/03/19 06:14:57;;;;;;;2.47;1.00;;;14.10;66.70;;;;;;4943601;28;20081;-76
2024/03/19 06:17:42;;;;;;;4.55;1.40;;;14.10;66.70;;;;;;4939100;29;20038;-77
2024/03/19 06:20:31;;;;;;;3.78;1.10;;;14.10;66.70;;;;;;4942462;28;20089;-81
2024/03/19 06:23:16;;;;;;;5.90;1.30;;;14.10;66.80;;;;;;4947571;28;20082;-83
2024/03/19 06:26:00;;;;;;;4.10;1.33;;;14.10;66.80;;;;;;4939906;29;20186;-77
2024/03/19 06:28:45;;;;;;;6.20;1.30;;;14.10;66.90;;;;;;4939734;29;20054;-82
2024/03/19 06:31:35;;;;;;;3.72;1.35;;;14.10;66.90;;;;;;4942318;28;20063;-77
2024/03/19 06:34:23;;;;;;;5.65;1.40;;;14.10;66.90;;;;;;4946188;29;20050;-82
2024/03/19 06:37:08;;;;;;;4.85;1.65;;;14.10;66.90;;;;;;4941720;29;20070;-79
2024/03/19 06:39:53;;;;;;;5.75;1.38;;;14.10;66.90;;;;;;4948879;28;20054;-84
2024/03/19 06:42:38;;;;;;;3.03;1.27;;;14.10;66.90;;;;;;4953221;28;20053;-79
2024/03/19 06:45:23;;;;;;;3.70;1.27;;;14.10;66.90;;;;;;4944527;29;20062;-77
2024/03/19 06:48:08;;;;;;;5.47;1.70;;;14.10;67.00;;;;;;4938947;28;20067;-77
2024/03/19 06:50:53;;;;;;;2.97;0.93;;;14.10;67.10;;;;;;4940729;28;20042;-82
2024/03/19 06:53:38;;;;;;;6.03;1.50;;;14.10;67.40;;;;;;4937910;28;20078;-78
2024/03/19 06:56:23;;;;;;;4.18;0.85;;;14.20;68.00;;;;;;4941054;29;20038;-77
2024/03/19 06:59:13;;;;;;;2.40;1.05;;;14.30;68.60;;;;;;4939357;28;20078;-84
2024/03/19 07:02:09;;;;;;;11.13;5.13;;;14.30;68.70;;;;;;4940879;28;20050;-77
2024/03/19 07:04:53;;;;;;;9.60;4.50;;;14.50;69.30;;;;;;4941635;28;20636;-77
2024/03/19 07:07:39;;;;;;;7.00;4.75;;;14.60;69.40;;;;;;4934764;28;20054;-78
2024/03/19 07:10:29;;;;;;;7.28;4.40;;;14.70;69.60;;;;;;4934434;28;20042;-78
2024/03/19 07:13:15;;;;;;;8.68;4.47;;;14.80;69.70;;;;;;4935151;28;20046;-86
2024/03/19 07:16:03;;;;;;;11.20;4.35;;;14.90;69.80;;;;;;4933235;28;20119;-79
2024/03/19 07:18:48;;;;;;;7.35;3.60;;;14.90;69.70;;;;;;4918595;29;20078;-79
2024/03/19 07:21:33;;;;;;;4.43;3.38;;;15.00;69.80;;;;;;4939005;28;20046;-81
2024/03/19 07:24:18;;;;;;;6.45;3.13;;;15.00;69.80;;;;;;4916609;29;20183;-79
2024/03/19 07:27:04;;;;;;;5.97;3.10;;;15.00;69.70;;;;;;4937286;28;20826;-79
2024/03/19 07:29:48;;;;;;;5.53;3.10;;;15.00;69.70;;;;;;4939161;29;20050;-79
2024/03/19 07:32:34;;;;;;;7.15;3.15;;;15.00;69.70;;;;;;4937724;28;20399;-79
2024/03/19 07:35:19;;;;;;;6.18;3.28;;;15.00;69.70;;;;;;4937222;29;20138;-79
2024/03/19 07:38:07;;;;;;;3.80;2.63;;;15.10;69.80;;;;;;4932399;29;20094;-80
2024/03/19 07:40:53;;;;;;;5.53;3.15;;;15.00;69.60;;;;;;4936465;28;20287;-82
2024/03/19 07:43:38;;;;;;;5.07;2.70;;;15.10;69.80;;;;;;4936321;28;20706;-79
2024/03/19 07:46:23;;;;;;;4.15;2.00;;;15.10;69.70;;;;;;4935872;28;20420;-79
2024/03/19 07:49:07;;;;;;;4.50;2.20;;;15.10;69.60;;;;;;4935456;29;20102;-79
2024/03/19 07:51:54;;;;;;;6.35;2.10;;;15.10;69.50;;;;;;4937270;29;20066;-79
2024/03/19 07:54:39;;;;;;;5.45;3.33;;;15.10;69.40;;;;;;4937548;28;20066;-79
2024/03/19 07:57:23;;;;;;;4.30;2.25;;;15.20;69.60;;;;;;4936480;28;20034;-78
2024/03/19 08:00:14;;;;;;;5.55;2.95;;;15.20;69.50;;;;;;4942060;28;20183;-83
2024/03/19 08:02:59;;;;;;;4.13;2.15;;;15.20;69.40;;;;;;4929437;28;20328;-78
2024/03/19 08:05:45;;;;;;;3.97;1.90;;;15.20;69.40;;;;;;4944782;28;20093;-84
2024/03/19 08:08:33;;;;;;;4.28;1.92;;;15.30;69.50;;;;;;4932348;28;20316;-78
2024/03/19 08:11:18;;;;;;;4.75;2.08;;;15.30;69.40;;;;;;4938650;28;20118;-79
2024/03/19 08:14:03;;;;;;;6.18;2.10;;;15.30;69.30;;;;;;4934324;28;20052;-80
2024/03/19 08:16:47;;;;;;;3.95;2.05;;;15.40;69.40;;;;;;4934151;29;20094;-81
2024/03/19 08:19:32;;;;;;;4.50;1.83;;;15.50;69.40;;;;;;4929129;29;20265;-79
2024/03/19 08:22:18;;;;;;;4.05;2.05;;;15.50;69.30;;;;;;4944149;28;20643;-80
2024/03/19 08:25:04;;;;;;;3.30;2.05;;;15.60;69.30;;;;;;4956462;28;20066;-81
2024/03/19 08:27:49;;;;;;;4.15;1.67;;;15.70;69.30;;;;;;4956256;29;20138;-84
2024/03/19 08:30:35;;;;;;;5.28;2.22;;;15.80;69.40;;;;;;4962015;29;20082;-78
2024/03/19 08:33:20;;;;;;;3.53;1.73;;;15.90;69.40;;;;;;4970955;28;20132;-80
2024/03/19 08:36:06;;;;;;;5.25;1.88;;;16.00;69.40;;;;;;4961977;28;20042;-85
2024/03/19 08:38:50;;;;;;;2.88;1.55;;;16.00;69.20;;;;;;4969988;28;20035;-84
2024/03/19 08:41:35;;;;;;;4.38;1.58;;;16.10;69.10;;;;;;4973176;28;20062;-79
2024/03/19 08:44:23;;;;;;;3.50;1.63;;;16.20;69.10;;;;;;4962165;28;20042;-78
2024/03/19 08:47:07;;;;;;;2.65;1.30;;;16.30;69.10;;;;;;4943159;29;20042;-84
2024/03/19 08:49:52;;;;;;;2.50;1.20;;;16.30;68.90;;;;;;4932345;29;20039;-83
2024/03/19 08:52:38;;;;;;;2.65;2.20;;;16.40;69.00;;;;;;4936917;28;20051;-79
2024/03/19 08:55:22;;;;;;;2.95;1.20;;;16.50;69.00;;;;;;4938202;29;20042;-82
2024/03/19 08:58:08;;;;;;;4.07;1.40;;;16.50;69.40;;;;;;4927203;29;20300;-85
2024/03/19 09:00:53;;;;;;;5.07;2.05;;;16.60;68.90;;;;;;4932018;28;20682;-85
2024/03/19 09:03:38;;;;;;;2.55;1.20;;;16.70;68.90;;;;;;4937097;28;20512;-81
2024/03/19 09:06:26;;;;;;;2.35;1.00;;;16.70;68.80;;;;;;4923648;29;20046;-80
2024/03/19 09:09:13;;;;;;;3.53;1.98;;;16.80;68.80;;;;;;4938131;28;20555;-80
2024/03/19 09:11:59;;;;;;;3.38;1.40;;;16.80;68.70;;;;;;4933388;28;20090;-79
2024/03/19 09:14:43;;;;;;;1.77;1.05;;;16.90;68.70;;;;;;4937898;28;20110;-83
2024/03/19 09:17:28;;;;;;;3.08;0.95;;;16.90;68.50;;;;;;4936943;29;20226;-79
2024/03/19 09:20:12;;;;;;;1.10;0.90;;;17.00;68.60;;;;;;4939559;28;20086;-80
2024/03/19 09:23:03;;;;;;;3.30;1.10;;;17.00;68.50;;;;;;4936399;28;20516;-79
2024/03/19 09:25:49;;;;;;;2.53;1.02;;;17.10;68.60;;;;;;4947749;28;20037;-83
2024/03/19 09:28:33;;;;;;;1.85;0.85;;;17.10;68.40;;;;;;4949675;28;20045;-80
2024/03/19 09:31:21;;;;;;;2.78;1.02;;;17.20;68.40;;;;;;4941960;28;20038;-85
2024/03/19 09:34:06;;;;;;;1.38;0.80;;;17.20;68.90;;;;;;4943809;28;20042;-80
2024/03/19 09:36:51;;;;;;;1.58;0.88;;;17.30;68.40;;;;;;4958156;28;20042;-80
2024/03/19 09:39:36;;;;;;;1.58;1.23;;;17.40;68.40;;;;;;4940701;28;20051;-79
2024/03/19 09:42:24;;;;;;;1.20;0.68;;;17.40;68.20;;;;;;4936944;29;20086;-81
2024/03/19 09:45:25;;;;;;;1.95;1.20;;;17.50;68.20;;;;;;4953336;28;20152;-81
2024/03/19 09:48:10;;;;;;;0.70;0.60;;;17.60;68.20;;;;;;4938226;28;20608;-79
2024/03/19 09:50:54;;;;;;;1.58;0.77;;;17.70;68.20;;;;;;4941039;29;20551;-80
2024/03/19 09:53:41;;;;;;;2.78;1.00;;;17.80;68.30;;;;;;4935880;28;20047;-79
2024/03/19 09:56:26;;;;;;;1.10;0.60;;;17.80;68.10;;;;;;4954579;28;20500;-80
2024/03/19 09:59:17;;;;;;;1.08;0.70;;;17.90;68.20;;;;;;4942519;28;20122;-82
2024/03/19 10:02:19;;;;;;;2.50;0.75;;;18.00;68.20;;;;;;4943639;28;20050;-79
2024/03/19 10:05:04;;;;;;;2.08;0.70;;;18.10;68.10;;;;;;4948428;29;20075;-82
2024/03/19 10:07:51;;;;;;;1.35;0.60;;;18.20;68.10;;;;;;4931258;28;20145;-83
2024/03/19 10:10:36;;;;;;;1.88;0.70;;;18.30;68.20;;;;;;4940137;29;20054;-82
2024/03/19 10:13:20;;;;;;;1.70;0.85;;;18.50;68.30;;;;;;4944143;29;20790;-82
2024/03/19 10:16:06;;;;;;;1.08;0.80;;;18.60;68.20;;;;;;4956807;28;20070;-79
2024/03/19 10:18:51;;;;;;;1.40;0.70;;;18.70;68.10;;;;;;4947678;28;20130;-80
2024/03/19 10:21:37;;;;;;;2.25;0.70;;;18.80;68.10;;;;;;4942494;29;20089;-85
2024/03/19 10:24:23;;;;;;;0.82;0.60;;;18.90;68.00;;;;;;4942483;29;20293;-79
2024/03/19 10:27:11;;;;;;;2.40;0.60;;;19.00;67.80;;;;;;4946766;28;20090;-84
2024/03/19 10:29:56;;;;;;;1.50;0.88;;;19.20;68.00;;;;;;4944782;28;20580;-79
2024/03/19 10:32:45;;;;;;;2.10;0.50;;;19.30;67.70;;;;;;4937318;29;20184;-79
2024/03/19 10:35:31;;;;;;;1.30;0.60;;;19.50;67.60;;;;;;4940130;29;20058;-79
2024/03/19 10:38:16;;;;;;;2.85;0.80;;;19.70;67.60;;;;;;4944812;28;20054;-79
2024/03/19 10:41:01;;;;;;;1.85;0.80;;;19.80;67.40;;;;;;4926949;28;20130;-79
2024/03/19 10:43:47;;;;;;;1.20;0.57;;;19.90;67.30;;;;;;4947745;28;20330;-79
2024/03/19 10:46:33;;;;;;;1.95;0.68;;;20.00;67.20;;;;;;4949722;28;20232;-79
2024/03/19 10:49:23;;;;;;;0.85;0.40;;;20.10;67.20;;;;;;4942131;29;20570;-79
2024/03/19 10:52:21;;;;;;;4.47;0.93;;;20.10;66.90;;;;;;4952761;28;20045;-83
2024/03/19 10:55:11;;;;;;;3.05;1.10;;;20.10;66.60;;;;;;4946178;28;20033;-80
2024/03/19 10:58:03;;;;;;;1.70;0.70;;;20.10;66.60;;;;;;4956482;28;20124;-80
2024/03/19 11:00:49;;;;;;;2.38;0.63;;;20.10;66.50;;;;;;4952839;28;20063;-80
2024/03/19 11:03:39;;;;;;;2.28;0.70;;;20.00;66.40;;;;;;4947978;28;20065;-81
2024/03/19 11:06:25;;;;;;;0.95;0.40;;;20.00;66.40;;;;;;4949809;28;20080;-81
2024/03/19 11:09:20;;;;;;;2.30;0.60;;;20.00;66.30;;;;;;4964899;28;20054;-81
2024/03/19 11:12:12;;;;;;;2.17;0.80;;;20.10;66.30;;;;;;4937601;28;20042;-80
2024/03/19 11:14:58;;;;;;;2.70;1.10;;;20.10;66.20;;;;;;4953613;28;20050;-80
2024/03/19 11:17:46;;;;;;;1.73;0.70;;;20.30;66.30;;;;;;4944162;29;20058;-80
2024/03/19 11:20:33;;;;;;;1.10;0.60;;;20.30;66.10;;;;;;4938930;29;20050;-79
2024/03/19 11:23:22;;;;;;;3.63;0.88;;;20.40;65.90;;;;;;4949159;28;20045;-80
2024/03/19 11:26:09;;;;;;;3.45;0.60;;;20.50;65.80;;;;;;4972100;28;20066;-85
2024/03/19 11:29:01;;;;;;;2.00;0.65;;;20.60;65.70;;;;;;4963960;29;20257;-89
2024/03/19 11:31:49;;;;;;;4.35;0.80;;;20.70;65.50;;;;;;4957152;29;20134;-81
2024/03/19 11:34:37;;;;;;;2.95;1.40;;;20.80;65.50;;;;;;4963807;28;20046;-82
2024/03/19 11:37:22;;;;;;;1.77;0.70;;;20.90;65.40;;;;;;4958472;29;20093;-83
2024/03/19 11:40:12;;;;;;;3.88;0.75;;;20.90;65.10;;;;;;4953269;28;20077;-82
2024/03/19 11:42:58;;;;;;;3.60;0.90;;;21.00;65.20;;;;;;4957867;29;20071;-84
2024/03/19 11:45:47;;;;;;;3.25;1.27;;;21.00;65.10;;;;;;4948339;28;20070;-81
2024/03/19 11:48:32;;;;;;;1.67;0.88;;;21.10;65.10;;;;;;4950243;28;20090;-80
2024/03/19 11:51:17;;;;;;;2.92;1.10;;;21.10;64.90;;;;;;4962252;28;20042;-78
2024/03/19 11:54:02;;;;;;;1.52;0.68;;;21.20;65.00;;;;;;4967614;28;20057;-79
2024/03/19 11:56:48;;;;;;;4.85;0.90;;;21.20;64.90;;;;;;4964439;28;20034;-80
2024/03/19 11:59:33;;;;;;;3.17;0.80;;;21.30;64.90;;;;;;4951190;29;20575;-79
2024/03/19 12:02:19;;;;;;;3.30;0.90;;;21.50;65.10;;;;;;4963058;28;20022;-82
2024/03/19 12:05:03;;;;;;;2.70;0.85;;;21.50;64.80;;;;;;4962754;28;20054;-79
2024/03/19 12:07:49;;;;;;;1.55;0.63;;;21.70;65.00;;;;;;4953045;29;20098;-84
2024/03/19 12:10:34;;;;;;;3.75;0.95;;;21.70;64.80;;;;;;4948451;29;20126;-90
2024/03/19 12:13:22;;;;;;;1.50;0.80;;;21.80;64.80;;;;;;4965662;28;20074;-84
2024/03/19 12:16:09;;;;;;;3.50;0.98;;;21.90;64.90;;;;;;4950880;28;20058;-82
2024/03/19 12:18:56;;;;;;;2.03;1.35;;;21.90;64.80;;;;;;4963499;28;20046;-84
2024/03/19 12:21:46;;;;;;;1.80;1.00;;;21.90;64.60;;;;;;4951374;28;20089;-81
2024/03/19 12:24:31;;;;;;;3.45;1.58;;;21.90;64.50;;;;;;4954262;28;20066;-79
2024/03/19 12:27:15;;;;;;;3.08;1.00;;;22.00;64.60;;;;;;4948534;29;20037;-79
2024/03/19 12:30:03;;;;;;;4.95;1.77;;;22.00;64.40;;;;;;4961868;28;20038;-80
2024/03/19 12:33:00;;;;;;;5.05;1.83;;;22.00;64.20;;;;;;4960028;28;20061;-80
2024/03/19 12:35:45;;;;;;;4.20;1.20;;;22.10;64.30;;;;;;4952309;29;20046;-81
2024/03/19 12:38:30;;;;;;;3.35;1.52;;;22.10;64.10;;;;;;4950424;28;20039;-83
2024/03/19 12:41:18;;;;;;;2.42;0.93;;;22.20;64.20;;;;;;4940143;29;20575;-85
2024/03/19 12:44:03;;;;;;;4.20;0.93;;;22.20;64.00;;;;;;4949580;28;20070;-85
2024/03/19 12:46:48;;;;;;;4.03;1.08;;;22.20;63.90;;;;;;4942414;29;20288;-79
2024/03/19 12:49:32;;;;;;;2.85;1.30;;;22.30;63.90;;;;;;4956243;29;20058;-88
2024/03/19 12:52:17;;;;;;;3.45;1.27;;;22.30;63.80;;;;;;4953866;28;20050;-83
2024/03/19 12:55:03;;;;;;;2.90;0.85;;;22.40;63.80;;;;;;4947168;28;20047;-82
2024/03/19 12:57:47;;;;;;;2.22;0.70;;;22.40;63.70;;;;;;4944368;29;20057;-80
2024/03/19 13:00:32;;;;;;;3.65;1.17;;;22.40;63.50;;;;;;4938133;29;20432;-87
2024/03/19 13:03:17;;;;;;;5.97;1.48;;;22.60;63.80;;;;;;4942735;28;20075;-81
2024/03/19 13:06:01;;;;;;;3.80;1.02;;;22.60;63.50;;;;;;4942889;29;20038;-86
2024/03/19 13:08:47;;;;;;;2.70;1.17;;;22.70;63.50;;;;;;4946430;29;20037;-84
2024/03/19 13:11:33;;;;;;;3.30;1.30;;;22.80;63.40;;;;;;4942941;29;20038;-87
2024/03/19 13:14:18;;;;;;;2.22;1.08;;;22.90;63.40;;;;;;4939095;29;20058;-82
2024/03/19 13:17:03;;;;;;;3.10;1.23;;;22.90;63.20;;;;;;4940045;29;20054;-85
2024/03/19 13:19:52;;;;;;;3.45;1.10;;;23.00;63.20;;;;;;4938203;28;20041;-80
2024/03/19 13:22:37;;;;;;;3.00;1.00;;;23.00;63.00;;;;;;4935761;28;20408;-79
2024/03/19 13:25:22;;;;;;;3.30;0.80;;;23.10;63.10;;;;;;4959188;28;20106;-82
2024/03/19 13:28:06;;;;;;;2.47;1.10;;;23.10;63.00;;;;;;4946689;29;20507;-78
2024/03/19 13:30:51;;;;;;;1.92;1.20;;;23.20;62.90;;;;;;4939362;28;20081;-84
2024/03/19 13:33:35;;;;;;;2.75;1.30;;;23.20;62.80;;;;;;4941639;28;20046;-80
2024/03/19 13:36:22;;;;;;;2.78;0.80;;;23.20;62.70;;;;;;4954859;28;20146;-82
2024/03/19 13:39:10;;;;;;;2.65;0.82;;;23.30;62.80;;;;;;4955725;28;20098;-79
2024/03/19 13:41:57;;;;;;;3.30;1.23;;;23.30;62.70;;;;;;4923688;28;20431;-81
2024/03/19 13:44:43;;;;;;;4.55;1.35;;;23.30;62.60;;;;;;4939893;28;20074;-80
2024/03/19 13:47:28;;;;;;;3.72;1.45;;;23.30;62.50;;;;;;4935427;29;20038;-79
2024/03/19 13:50:16;;;;;;;3.53;1.10;;;23.30;62.40;;;;;;4941782;28;20307;-81
2024/03/19 13:53:05;;;;;;;1.98;1.02;;;23.40;62.40;;;;;;4953202;28;20085;-86
2024/03/19 13:55:52;;;;;;;4.05;1.15;;;23.40;62.40;;;;;;4939539;29;20054;-79
2024/03/19 13:58:37;;;;;;;3.95;1.20;;;23.40;62.30;;;;;;4927343;28;20042;-80
2024/03/19 14:01:22;;;;;;;4.05;1.30;;;23.40;62.10;;;;;;4936707;28;20115;-90
2024/03/19 14:04:07;;;;;;;3.72;1.52;;;23.50;62.20;;;;;;4938779;28;20065;-82
2024/03/19 14:06:53;;;;;;;3.45;1.38;;;23.50;62.00;;;;;;4925842;29;20437;-86
2024/03/19 14:09:39;;;;;;;4.10;1.30;;;23.60;62.00;;;;;;4944022;28;20054;-84
2024/03/19 14:12:23;;;;;;;3.78;1.23;;;23.60;61.90;;;;;;4938306;29;20243;-81
2024/03/19 14:15:09;;;;;;;3.30;1.25;;;23.70;62.00;;;;;;4937837;29;20596;-84
2024/03/19 14:17:54;;;;;;;3.28;1.00;;;23.70;61.90;;;;;;4938183;28;20054;-83
2024/03/19 14:20:41;;;;;;;4.18;1.55;;;23.70;61.80;;;;;;4928995;28;20452;-84
2024/03/19 14:23:26;;;;;;;4.63;1.83;;;23.80;61.80;;;;;;4925629;29;20204;-82
2024/03/19 14:26:11;;;;;;;4.35;1.58;;;23.90;61.90;;;;;;4934529;28;20559;-84